sensor_id;sensor_type;location;lat;lon;timestamp;P1;durP1;ratioP1;P2;durP2;ratioP2
51184;SDS011;37248;59.350;18.050;2023-02-20T00:00:47;4.50;;;1.60;;
51184;SDS011;37248;59.350;18.050;2023-02-20T00:03:13;7.70;;;2.17;;
51184;SDS011;37248;59.350;18.050;2023-02-20T00:05:39;5.03;;;1.88;;
51184;SDS011;37248;59.350;18.050;2023-02-20T00:08:04;5.50;;;1.67;;
51184;SDS011;37248;59.350;18.050;2023-02-20T00:10:29;3.40;;;1.53;;
51184;SDS011;37248;59.350;18.050;2023-02-20T00:12:54;4.07;;;1.50;;
51184;SDS011;37248;59.350;18.050;2023-02-20T00:15:20;3.40;;;1.70;;
51184;SDS011;37248;59.350;18.050;2023-02-20T00:17:46;2.90;;;1.50;;
51184;SDS011;37248;59.350;18.050;2023-02-20T00:20:21;3.40;;;1.30;;
51184;SDS011;37248;59.350;18.050;2023-02-20T00:22:47;2.80;;;1.48;;
51184;SDS011;37248;59.350;18.050;2023-02-20T00:25:14;4.63;;;1.70;;
51184;SDS011;37248;59.350;18.050;2023-02-20T00:27:40;2.88;;;1.30;;
51184;SDS011;37248;59.350;18.050;2023-02-20T00:30:06;3.42;;;1.52;;
51184;SDS011;37248;59.350;18.050;2023-02-20T00:32:31;3.78;;;1.45;;
51184;SDS011;37248;59.350;18.050;2023-02-20T00:34:56;2.80;;;1.30;;
51184;SDS011;37248;59.350;18.050;2023-02-20T00:37:22;3.40;;;1.57;;
51184;SDS011;37248;59.350;18.050;2023-02-20T00:39:47;3.47;;;1.40;;
51184;SDS011;37248;59.350;18.050;2023-02-20T00:42:12;5.07;;;1.57;;
51184;SDS011;37248;59.350;18.050;2023-02-20T00:44:38;4.10;;;1.40;;
51184;SDS011;37248;59.350;18.050;2023-02-20T00:47:03;4.97;;;1.20;;
51184;SDS011;37248;59.350;18.050;2023-02-20T00:49:28;3.77;;;1.30;;
51184;SDS011;37248;59.350;18.050;2023-02-20T00:51:53;5.30;;;1.40;;
51184;SDS011;37248;59.350;18.050;2023-02-20T00:54:19;3.40;;;1.10;;
51184;SDS011;37248;59.350;18.050;2023-02-20T00:56:44;3.37;;;1.40;;
51184;SDS011;37248;59.350;18.050;2023-02-20T00:59:09;2.97;;;1.27;;
51184;SDS011;37248;59.350;18.050;2023-02-20T01:01:35;3.93;;;1.10;;
51184;SDS011;37248;59.350;18.050;2023-02-20T01:04:00;5.17;;;1.30;;
51184;SDS011;37248;59.350;18.050;2023-02-20T01:06:25;2.90;;;1.20;;
51184;SDS011;37248;59.350;18.050;2023-02-20T01:08:50;6.07;;;1.40;;
51184;SDS011;37248;59.350;18.050;2023-02-20T01:11:16;2.13;;;1.10;;
51184;SDS011;37248;59.350;18.050;2023-02-20T01:13:41;3.77;;;1.30;;
51184;SDS011;37248;59.350;18.050;2023-02-20T01:16:06;7.47;;;1.50;;
51184;SDS011;37248;59.350;18.050;2023-02-20T01:18:32;2.97;;;1.10;;
51184;SDS011;37248;59.350;18.050;2023-02-20T01:20:57;2.40;;;1.13;;
51184;SDS011;37248;59.350;18.050;2023-02-20T01:23:22;6.00;;;1.30;;
51184;SDS011;37248;59.350;18.050;2023-02-20T01:25:48;5.63;;;1.43;;
51184;SDS011;37248;59.350;18.050;2023-02-20T01:28:13;2.50;;;1.20;;
51184;SDS011;37248;59.350;18.050;2023-02-20T01:30:38;2.50;;;1.10;;
51184;SDS011;37248;59.350;18.050;2023-02-20T01:33:03;5.13;;;1.20;;
51184;SDS011;37248;59.350;18.050;2023-02-20T01:35:29;4.30;;;1.17;;
51184;SDS011;37248;59.350;18.050;2023-02-20T01:37:56;3.22;;;1.00;;
51184;SDS011;37248;59.350;18.050;2023-02-20T01:40:22;3.17;;;0.90;;
51184;SDS011;37248;59.350;18.050;2023-02-20T01:42:47;2.23;;;1.00;;
51184;SDS011;37248;59.350;18.050;2023-02-20T01:45:15;2.90;;;1.20;;
51184;SDS011;37248;59.350;18.050;2023-02-20T01:47:41;2.83;;;1.20;;
51184;SDS011;37248;59.350;18.050;2023-02-20T01:50:06;2.10;;;1.03;;
51184;SDS011;37248;59.350;18.050;2023-02-20T01:52:33;4.57;;;1.07;;
51184;SDS011;37248;59.350;18.050;2023-02-20T01:57:25;4.55;;;1.00;;
51184;SDS011;37248;59.350;18.050;2023-02-20T01:59:52;2.60;;;1.00;;
51184;SDS011;37248;59.350;18.050;2023-02-20T02:02:20;2.33;;;1.08;;
51184;SDS011;37248;59.350;18.050;2023-02-20T02:04:45;2.50;;;0.80;;
51184;SDS011;37248;59.350;18.050;2023-02-20T02:07:11;2.50;;;0.82;;
51184;SDS011;37248;59.350;18.050;2023-02-20T02:09:38;2.97;;;0.95;;
51184;SDS011;37248;59.350;18.050;2023-02-20T02:12:05;1.57;;;0.90;;
51184;SDS011;37248;59.350;18.050;2023-02-20T02:14:31;1.83;;;0.90;;
51184;SDS011;37248;59.350;18.050;2023-02-20T02:27:35;1.50;;;0.70;;
51184;SDS011;37248;59.350;18.050;2023-02-20T02:43:17;1.67;;;0.73;;
51184;SDS011;37248;59.350;18.050;2023-02-20T02:45:58;1.90;;;0.70;;
51184;SDS011;37248;59.350;18.050;2023-02-20T02:50:58;1.42;;;0.57;;
51184;SDS011;37248;59.350;18.050;2023-02-20T02:53:25;1.88;;;0.80;;
51184;SDS011;37248;59.350;18.050;2023-02-20T02:55:50;2.53;;;1.00;;
51184;SDS011;37248;59.350;18.050;2023-02-20T02:58:15;1.60;;;0.67;;
51184;SDS011;37248;59.350;18.050;2023-02-20T03:00:42;2.10;;;0.83;;
51184;SDS011;37248;59.350;18.050;2023-02-20T03:05:49;1.50;;;0.60;;
51184;SDS011;37248;59.350;18.050;2023-02-20T03:08:58;1.17;;;0.60;;
51184;SDS011;37248;59.350;18.050;2023-02-20T03:13:41;1.67;;;0.73;;
51184;SDS011;37248;59.350;18.050;2023-02-20T03:16:31;1.50;;;0.60;;
51184;SDS011;37248;59.350;18.050;2023-02-20T03:19:02;2.17;;;0.73;;
51184;SDS011;37248;59.350;18.050;2023-02-20T03:21:29;2.20;;;0.82;;
51184;SDS011;37248;59.350;18.050;2023-02-20T03:23:57;2.00;;;0.70;;
51184;SDS011;37248;59.350;18.050;2023-02-20T03:26:33;1.77;;;0.80;;
51184;SDS011;37248;59.350;18.050;2023-02-20T03:29:06;3.23;;;0.80;;
51184;SDS011;37248;59.350;18.050;2023-02-20T03:31:36;1.58;;;0.60;;
51184;SDS011;37248;59.350;18.050;2023-02-20T03:34:14;5.03;;;0.88;;
51184;SDS011;37248;59.350;18.050;2023-02-20T03:37:10;3.10;;;0.70;;
51184;SDS011;37248;59.350;18.050;2023-02-20T03:39:56;2.40;;;0.60;;
51184;SDS011;37248;59.350;18.050;2023-02-20T03:42:42;1.63;;;0.60;;
51184;SDS011;37248;59.350;18.050;2023-02-20T03:45:27;4.30;;;0.80;;
51184;SDS011;37248;59.350;18.050;2023-02-20T03:47:56;1.23;;;0.60;;
51184;SDS011;37248;59.350;18.050;2023-02-20T03:50:24;1.00;;;0.60;;
51184;SDS011;37248;59.350;18.050;2023-02-20T03:52:49;2.47;;;0.80;;
51184;SDS011;37248;59.350;18.050;2023-02-20T03:55:15;2.97;;;0.77;;
51184;SDS011;37248;59.350;18.050;2023-02-20T03:57:41;2.20;;;0.80;;
51184;SDS011;37248;59.350;18.050;2023-02-20T04:00:10;1.57;;;0.60;;
51184;SDS011;37248;59.350;18.050;2023-02-20T04:02:38;1.20;;;0.60;;
51184;SDS011;37248;59.350;18.050;2023-02-20T04:05:07;2.20;;;0.70;;
51184;SDS011;37248;59.350;18.050;2023-02-20T04:07:35;1.40;;;0.70;;
51184;SDS011;37248;59.350;18.050;2023-02-20T04:10:01;1.63;;;0.68;;
51184;SDS011;37248;59.350;18.050;2023-02-20T04:12:32;1.70;;;0.70;;
51184;SDS011;37248;59.350;18.050;2023-02-20T04:14:59;2.33;;;0.65;;
51184;SDS011;37248;59.350;18.050;2023-02-20T04:17:26;1.47;;;0.70;;
51184;SDS011;37248;59.350;18.050;2023-02-20T04:19:52;1.15;;;0.60;;
51184;SDS011;37248;59.350;18.050;2023-02-20T04:22:19;1.27;;;0.60;;
51184;SDS011;37248;59.350;18.050;2023-02-20T04:25:06;1.35;;;0.80;;
51184;SDS011;37248;59.350;18.050;2023-02-20T04:27:32;1.70;;;0.60;;
51184;SDS011;37248;59.350;18.050;2023-02-20T04:29:57;4.23;;;0.67;;
51184;SDS011;37248;59.350;18.050;2023-02-20T04:32:23;2.30;;;0.80;;
51184;SDS011;37248;59.350;18.050;2023-02-20T04:34:48;1.83;;;0.70;;
51184;SDS011;37248;59.350;18.050;2023-02-20T04:37:14;2.43;;;0.80;;
51184;SDS011;37248;59.350;18.050;2023-02-20T04:39:40;4.35;;;0.82;;
51184;SDS011;37248;59.350;18.050;2023-02-20T04:42:06;1.60;;;0.80;;
51184;SDS011;37248;59.350;18.050;2023-02-20T04:44:32;2.27;;;0.80;;
51184;SDS011;37248;59.350;18.050;2023-02-20T04:47:01;4.63;;;0.73;;
51184;SDS011;37248;59.350;18.050;2023-02-20T04:49:27;6.63;;;0.70;;
51184;SDS011;37248;59.350;18.050;2023-02-20T04:51:52;3.10;;;0.70;;
51184;SDS011;37248;59.350;18.050;2023-02-20T04:54:18;3.78;;;0.75;;
51184;SDS011;37248;59.350;18.050;2023-02-20T04:56:43;2.77;;;0.80;;
51184;SDS011;37248;59.350;18.050;2023-02-20T04:59:08;3.60;;;0.83;;
51184;SDS011;37248;59.350;18.050;2023-02-20T05:01:34;2.38;;;0.68;;
51184;SDS011;37248;59.350;18.050;2023-02-20T05:03:59;3.03;;;0.80;;
51184;SDS011;37248;59.350;18.050;2023-02-20T05:06:24;2.50;;;0.80;;
51184;SDS011;37248;59.350;18.050;2023-02-20T05:08:50;4.00;;;0.80;;
51184;SDS011;37248;59.350;18.050;2023-02-20T05:11:15;4.73;;;0.90;;
51184;SDS011;37248;59.350;18.050;2023-02-20T05:13:40;3.20;;;0.70;;
51184;SDS011;37248;59.350;18.050;2023-02-20T05:16:06;5.80;;;0.90;;
51184;SDS011;37248;59.350;18.050;2023-02-20T05:18:32;4.70;;;1.00;;
51184;SDS011;37248;59.350;18.050;2023-02-20T05:20:57;5.57;;;0.90;;
51184;SDS011;37248;59.350;18.050;2023-02-20T05:23:41;5.15;;;0.85;;
51184;SDS011;37248;59.350;18.050;2023-02-20T05:26:10;2.90;;;0.80;;
51184;SDS011;37248;59.350;18.050;2023-02-20T05:28:35;3.80;;;0.90;;
51184;SDS011;37248;59.350;18.050;2023-02-20T05:31:01;4.55;;;0.82;;
51184;SDS011;37248;59.350;18.050;2023-02-20T05:33:26;2.23;;;0.67;;
51184;SDS011;37248;59.350;18.050;2023-02-20T05:35:51;4.87;;;0.77;;
51184;SDS011;37248;59.350;18.050;2023-02-20T05:38:17;5.60;;;0.80;;
51184;SDS011;37248;59.350;18.050;2023-02-20T05:40:42;2.93;;;0.50;;
51184;SDS011;37248;59.350;18.050;2023-02-20T05:43:07;3.27;;;0.77;;
51184;SDS011;37248;59.350;18.050;2023-02-20T05:45:33;1.77;;;0.70;;
51184;SDS011;37248;59.350;18.050;2023-02-20T05:47:58;4.00;;;0.70;;
51184;SDS011;37248;59.350;18.050;2023-02-20T05:50:23;4.20;;;0.90;;
51184;SDS011;37248;59.350;18.050;2023-02-20T05:52:48;3.80;;;0.70;;
51184;SDS011;37248;59.350;18.050;2023-02-20T05:55:14;3.77;;;0.73;;
51184;SDS011;37248;59.350;18.050;2023-02-20T05:57:39;2.65;;;0.68;;
51184;SDS011;37248;59.350;18.050;2023-02-20T06:00:04;3.60;;;0.83;;
51184;SDS011;37248;59.350;18.050;2023-02-20T06:02:30;9.20;;;0.80;;
51184;SDS011;37248;59.350;18.050;2023-02-20T06:04:57;5.80;;;0.93;;
51184;SDS011;37248;59.350;18.050;2023-02-20T06:07:23;15.97;;;1.20;;
51184;SDS011;37248;59.350;18.050;2023-02-20T06:09:48;2.60;;;0.77;;
51184;SDS011;37248;59.350;18.050;2023-02-20T06:12:13;10.05;;;0.95;;
51184;SDS011;37248;59.350;18.050;2023-02-20T06:14:39;14.03;;;0.97;;
51184;SDS011;37248;59.350;18.050;2023-02-20T06:17:04;13.43;;;1.30;;
51184;SDS011;37248;59.350;18.050;2023-02-20T06:19:29;14.17;;;1.40;;
51184;SDS011;37248;59.350;18.050;2023-02-20T06:21:54;16.27;;;1.63;;
51184;SDS011;37248;59.350;18.050;2023-02-20T06:24:22;15.25;;;1.27;;
51184;SDS011;37248;59.350;18.050;2023-02-20T06:26:48;12.40;;;1.30;;
51184;SDS011;37248;59.350;18.050;2023-02-20T06:29:13;18.47;;;2.37;;
51184;SDS011;37248;59.350;18.050;2023-02-20T06:31:39;28.30;;;2.97;;
51184;SDS011;37248;59.350;18.050;2023-02-20T06:34:05;23.47;;;3.70;;
51184;SDS011;37248;59.350;18.050;2023-02-20T06:36:31;27.58;;;3.30;;
51184;SDS011;37248;59.350;18.050;2023-02-20T06:38:57;25.85;;;3.08;;
51184;SDS011;37248;59.350;18.050;2023-02-20T06:41:22;15.48;;;2.80;;
51184;SDS011;37248;59.350;18.050;2023-02-20T06:43:47;18.30;;;2.50;;
51184;SDS011;37248;59.350;18.050;2023-02-20T06:46:13;19.07;;;2.80;;
51184;SDS011;37248;59.350;18.050;2023-02-20T06:48:49;26.03;;;2.60;;
51184;SDS011;37248;59.350;18.050;2023-02-20T06:51:18;23.83;;;2.90;;
51184;SDS011;37248;59.350;18.050;2023-02-20T06:53:43;12.32;;;2.25;;
51184;SDS011;37248;59.350;18.050;2023-02-20T06:56:09;14.88;;;2.40;;
51184;SDS011;37248;59.350;18.050;2023-02-20T06:58:37;13.68;;;3.10;;
51184;SDS011;37248;59.350;18.050;2023-02-20T07:01:02;18.57;;;3.20;;
51184;SDS011;37248;59.350;18.050;2023-02-20T07:03:28;11.83;;;2.47;;
51184;SDS011;37248;59.350;18.050;2023-02-20T07:05:53;16.50;;;2.60;;
51184;SDS011;37248;59.350;18.050;2023-02-20T07:08:18;12.77;;;2.77;;
51184;SDS011;37248;59.350;18.050;2023-02-20T07:10:43;10.17;;;2.00;;
51184;SDS011;37248;59.350;18.050;2023-02-20T07:13:09;10.82;;;2.17;;
51184;SDS011;37248;59.350;18.050;2023-02-20T07:15:34;10.57;;;2.10;;
51184;SDS011;37248;59.350;18.050;2023-02-20T07:17:59;12.23;;;2.80;;
51184;SDS011;37248;59.350;18.050;2023-02-20T07:20:24;11.17;;;2.30;;
51184;SDS011;37248;59.350;18.050;2023-02-20T07:22:50;10.63;;;2.10;;
51184;SDS011;37248;59.350;18.050;2023-02-20T07:25:16;9.77;;;2.00;;
51184;SDS011;37248;59.350;18.050;2023-02-20T07:27:41;7.87;;;2.03;;
51184;SDS011;37248;59.350;18.050;2023-02-20T07:30:07;9.03;;;2.00;;
51184;SDS011;37248;59.350;18.050;2023-02-20T07:32:32;12.70;;;2.27;;
51184;SDS011;37248;59.350;18.050;2023-02-20T07:34:57;8.57;;;2.07;;
51184;SDS011;37248;59.350;18.050;2023-02-20T07:37:22;6.53;;;1.90;;
51184;SDS011;37248;59.350;18.050;2023-02-20T07:39:48;6.67;;;2.07;;
51184;SDS011;37248;59.350;18.050;2023-02-20T07:42:13;9.47;;;2.20;;
51184;SDS011;37248;59.350;18.050;2023-02-20T07:44:42;4.65;;;1.60;;
51184;SDS011;37248;59.350;18.050;2023-02-20T07:47:08;6.88;;;1.65;;
51184;SDS011;37248;59.350;18.050;2023-02-20T07:49:33;6.50;;;1.60;;
51184;SDS011;37248;59.350;18.050;2023-02-20T07:51:58;7.70;;;1.90;;
51184;SDS011;37248;59.350;18.050;2023-02-20T07:54:24;9.57;;;1.92;;
51184;SDS011;37248;59.350;18.050;2023-02-20T07:56:51;7.47;;;1.85;;
51184;SDS011;37248;59.350;18.050;2023-02-20T07:59:16;7.55;;;1.65;;
51184;SDS011;37248;59.350;18.050;2023-02-20T08:01:42;7.80;;;2.03;;
51184;SDS011;37248;59.350;18.050;2023-02-20T08:04:08;5.03;;;1.50;;
51184;SDS011;37248;59.350;18.050;2023-02-20T08:06:33;6.80;;;1.70;;
51184;SDS011;37248;59.350;18.050;2023-02-20T08:08:58;3.17;;;1.40;;
51184;SDS011;37248;59.350;18.050;2023-02-20T08:11:24;7.00;;;1.75;;
51184;SDS011;37248;59.350;18.050;2023-02-20T08:13:49;3.17;;;1.10;;
51184;SDS011;37248;59.350;18.050;2023-02-20T08:16:15;5.63;;;1.60;;
51184;SDS011;37248;59.350;18.050;2023-02-20T08:18:40;5.97;;;1.60;;
51184;SDS011;37248;59.350;18.050;2023-02-20T08:21:05;6.70;;;1.40;;
51184;SDS011;37248;59.350;18.050;2023-02-20T08:23:30;3.83;;;1.37;;
51184;SDS011;37248;59.350;18.050;2023-02-20T08:25:56;2.13;;;1.20;;
51184;SDS011;37248;59.350;18.050;2023-02-20T08:28:21;5.67;;;1.43;;
51184;SDS011;37248;59.350;18.050;2023-02-20T08:30:46;4.60;;;1.40;;
51184;SDS011;37248;59.350;18.050;2023-02-20T08:33:12;2.80;;;1.30;;
51184;SDS011;37248;59.350;18.050;2023-02-20T08:35:37;5.40;;;1.33;;
51184;SDS011;37248;59.350;18.050;2023-02-20T08:38:03;11.27;;;1.43;;
51184;SDS011;37248;59.350;18.050;2023-02-20T08:40:29;2.75;;;1.15;;
51184;SDS011;37248;59.350;18.050;2023-02-20T08:42:54;3.88;;;1.50;;
51184;SDS011;37248;59.350;18.050;2023-02-20T08:45:19;3.77;;;1.10;;
51184;SDS011;37248;59.350;18.050;2023-02-20T08:47:45;4.80;;;1.20;;
51184;SDS011;37248;59.350;18.050;2023-02-20T08:50:12;5.38;;;1.30;;
51184;SDS011;37248;59.350;18.050;2023-02-20T08:52:37;4.53;;;1.30;;
51184;SDS011;37248;59.350;18.050;2023-02-20T08:55:03;3.70;;;1.27;;
51184;SDS011;37248;59.350;18.050;2023-02-20T08:57:28;3.43;;;1.60;;
51184;SDS011;37248;59.350;18.050;2023-02-20T08:59:53;3.83;;;1.70;;
51184;SDS011;37248;59.350;18.050;2023-02-20T09:02:19;5.87;;;1.60;;
51184;SDS011;37248;59.350;18.050;2023-02-20T09:04:45;5.15;;;1.77;;
51184;SDS011;37248;59.350;18.050;2023-02-20T09:07:11;3.50;;;1.60;;
51184;SDS011;37248;59.350;18.050;2023-02-20T09:09:36;3.63;;;1.77;;
51184;SDS011;37248;59.350;18.050;2023-02-20T09:12:02;2.53;;;1.63;;
51184;SDS011;37248;59.350;18.050;2023-02-20T09:14:27;2.97;;;1.77;;
51184;SDS011;37248;59.350;18.050;2023-02-20T09:16:53;2.83;;;1.67;;
51184;SDS011;37248;59.350;18.050;2023-02-20T09:19:18;10.18;;;2.13;;
51184;SDS011;37248;59.350;18.050;2023-02-20T09:21:45;7.75;;;2.30;;
51184;SDS011;37248;59.350;18.050;2023-02-20T09:24:11;9.20;;;2.00;;
51184;SDS011;37248;59.350;18.050;2023-02-20T09:26:36;9.57;;;2.00;;
51184;SDS011;37248;59.350;18.050;2023-02-20T09:29:01;6.67;;;2.23;;
51184;SDS011;37248;59.350;18.050;2023-02-20T09:31:27;11.80;;;2.50;;
51184;SDS011;37248;59.350;18.050;2023-02-20T09:33:52;8.37;;;2.33;;
51184;SDS011;37248;59.350;18.050;2023-02-20T09:36:17;10.50;;;2.33;;
51184;SDS011;37248;59.350;18.050;2023-02-20T09:38:42;10.73;;;1.90;;
51184;SDS011;37248;59.350;18.050;2023-02-20T09:44:10;9.45;;;2.28;;
51184;SDS011;37248;59.350;18.050;2023-02-20T09:46:36;35.58;;;3.80;;
51184;SDS011;37248;59.350;18.050;2023-02-20T09:49:04;86.13;;;7.50;;
51184;SDS011;37248;59.350;18.050;2023-02-20T09:51:31;82.28;;;8.35;;
51184;SDS011;37248;59.350;18.050;2023-02-20T09:54:01;64.07;;;6.72;;
51184;SDS011;37248;59.350;18.050;2023-02-20T09:56:27;49.75;;;5.60;;
51184;SDS011;37248;59.350;18.050;2023-02-20T10:01:24;44.97;;;4.90;;
51184;SDS011;37248;59.350;18.050;2023-02-20T10:06:51;47.33;;;4.88;;
51184;SDS011;37248;59.350;18.050;2023-02-20T10:09:17;35.83;;;4.75;;
51184;SDS011;37248;59.350;18.050;2023-02-20T10:14:27;26.43;;;3.30;;
51184;SDS011;37248;59.350;18.050;2023-02-20T10:19:51;22.98;;;3.65;;
51184;SDS011;37248;59.350;18.050;2023-02-20T10:22:22;16.98;;;3.83;;
51184;SDS011;37248;59.350;18.050;2023-02-20T10:29:49;22.75;;;3.60;;
51184;SDS011;37248;59.350;18.050;2023-02-20T10:32:17;21.75;;;4.22;;
51184;SDS011;37248;59.350;18.050;2023-02-20T10:34:56;18.55;;;4.25;;
51184;SDS011;37248;59.350;18.050;2023-02-20T10:37:24;22.13;;;4.72;;
51184;SDS011;37248;59.350;18.050;2023-02-20T10:39:55;18.40;;;4.15;;
51184;SDS011;37248;59.350;18.050;2023-02-20T10:42:24;19.95;;;4.80;;
51184;SDS011;37248;59.350;18.050;2023-02-20T10:44:55;15.35;;;3.78;;
51184;SDS011;37248;59.350;18.050;2023-02-20T10:47:24;17.80;;;3.47;;
51184;SDS011;37248;59.350;18.050;2023-02-20T10:49:59;17.80;;;3.67;;
51184;SDS011;37248;59.350;18.050;2023-02-20T10:52:30;14.40;;;3.30;;
51184;SDS011;37248;59.350;18.050;2023-02-20T10:55:02;16.77;;;3.30;;
51184;SDS011;37248;59.350;18.050;2023-02-20T10:58:04;14.00;;;3.50;;
51184;SDS011;37248;59.350;18.050;2023-02-20T11:00:26;15.05;;;3.33;;
51184;SDS011;37248;59.350;18.050;2023-02-20T11:02:55;15.18;;;3.65;;
51184;SDS011;37248;59.350;18.050;2023-02-20T11:05:23;12.90;;;3.42;;
51184;SDS011;37248;59.350;18.050;2023-02-20T11:07:49;12.82;;;3.25;;
51184;SDS011;37248;59.350;18.050;2023-02-20T11:10:14;13.73;;;3.13;;
51184;SDS011;37248;59.350;18.050;2023-02-20T11:12:40;9.23;;;3.00;;
51184;SDS011;37248;59.350;18.050;2023-02-20T11:15:11;10.85;;;3.08;;
51184;SDS011;37248;59.350;18.050;2023-02-20T11:17:38;11.55;;;3.30;;
51184;SDS011;37248;59.350;18.050;2023-02-20T11:20:04;10.45;;;2.92;;
51184;SDS011;37248;59.350;18.050;2023-02-20T11:23:04;11.63;;;3.17;;
51184;SDS011;37248;59.350;18.050;2023-02-20T11:25:26;9.43;;;2.75;;
51184;SDS011;37248;59.350;18.050;2023-02-20T11:27:55;11.18;;;3.20;;
51184;SDS011;37248;59.350;18.050;2023-02-20T11:30:31;9.73;;;3.10;;
51184;SDS011;37248;59.350;18.050;2023-02-20T11:33:03;11.80;;;2.70;;
51184;SDS011;37248;59.350;18.050;2023-02-20T11:35:30;10.70;;;2.60;;
51184;SDS011;37248;59.350;18.050;2023-02-20T11:40:41;10.30;;;2.70;;
51184;SDS011;37248;59.350;18.050;2023-02-20T11:43:20;8.93;;;2.53;;
51184;SDS011;37248;59.350;18.050;2023-02-20T11:45:46;7.88;;;2.45;;
51184;SDS011;37248;59.350;18.050;2023-02-20T11:50:47;10.50;;;2.80;;
51184;SDS011;37248;59.350;18.050;2023-02-20T11:53:17;9.02;;;2.70;;
51184;SDS011;37248;59.350;18.050;2023-02-20T11:55:43;6.55;;;2.40;;
51184;SDS011;37248;59.350;18.050;2023-02-20T11:58:25;9.20;;;2.40;;
51184;SDS011;37248;59.350;18.050;2023-02-20T12:00:52;8.40;;;2.45;;
51184;SDS011;37248;59.350;18.050;2023-02-20T12:03:22;12.60;;;2.67;;
51184;SDS011;37248;59.350;18.050;2023-02-20T12:05:48;8.55;;;2.15;;
51184;SDS011;37248;59.350;18.050;2023-02-20T12:10:52;9.13;;;2.60;;
51184;SDS011;37248;59.350;18.050;2023-02-20T12:13:18;12.63;;;2.50;;
51184;SDS011;37248;59.350;18.050;2023-02-20T12:15:45;9.73;;;2.50;;
51184;SDS011;37248;59.350;18.050;2023-02-20T12:20:51;8.52;;;2.00;;
51184;SDS011;37248;59.350;18.050;2023-02-20T12:28:29;5.25;;;1.90;;
51184;SDS011;37248;59.350;18.050;2023-02-20T12:33:37;7.70;;;2.22;;
51184;SDS011;37248;59.350;18.050;2023-02-20T12:46:33;7.97;;;2.00;;
51184;SDS011;37248;59.350;18.050;2023-02-20T12:54:22;4.85;;;2.00;;
51184;SDS011;37248;59.350;18.050;2023-02-20T12:57:13;7.72;;;1.90;;
51184;SDS011;37248;59.350;18.050;2023-02-20T13:00:38;7.82;;;1.83;;
51184;SDS011;37248;59.350;18.050;2023-02-20T13:02:32;9.98;;;1.90;;
51184;SDS011;37248;59.350;18.050;2023-02-20T13:04:59;8.50;;;1.83;;
51184;SDS011;37248;59.350;18.050;2023-02-20T13:10:06;6.97;;;2.00;;
51184;SDS011;37248;59.350;18.050;2023-02-20T13:12:34;7.20;;;2.17;;
51184;SDS011;37248;59.350;18.050;2023-02-20T13:15:04;5.60;;;1.60;;
51184;SDS011;37248;59.350;18.050;2023-02-20T13:20:19;3.65;;;1.60;;
51184;SDS011;37248;59.350;18.050;2023-02-20T13:28:01;5.60;;;1.70;;
51184;SDS011;37248;59.350;18.050;2023-02-20T13:30:30;4.68;;;1.70;;
51184;SDS011;37248;59.350;18.050;2023-02-20T13:33:15;5.25;;;1.70;;
51184;SDS011;37248;59.350;18.050;2023-02-20T13:36:15;3.57;;;1.70;;
51184;SDS011;37248;59.350;18.050;2023-02-20T13:38:32;4.90;;;1.60;;
51184;SDS011;37248;59.350;18.050;2023-02-20T13:41:02;2.93;;;1.20;;
51184;SDS011;37248;59.350;18.050;2023-02-20T13:43:29;2.85;;;1.25;;
51184;SDS011;37248;59.350;18.050;2023-02-20T13:53:36;5.00;;;1.40;;
51184;SDS011;37248;59.350;18.050;2023-02-20T13:56:02;6.77;;;1.40;;
51184;SDS011;37248;59.350;18.050;2023-02-20T13:58:27;4.33;;;1.20;;
51184;SDS011;37248;59.350;18.050;2023-02-20T14:00:53;2.50;;;1.30;;
51184;SDS011;37248;59.350;18.050;2023-02-20T14:03:30;4.70;;;1.40;;
51184;SDS011;37248;59.350;18.050;2023-02-20T14:08:29;4.78;;;1.38;;
51184;SDS011;37248;59.350;18.050;2023-02-20T14:11:02;3.87;;;1.30;;
51184;SDS011;37248;59.350;18.050;2023-02-20T14:13:28;4.20;;;1.40;;
51184;SDS011;37248;59.350;18.050;2023-02-20T14:15:54;3.50;;;1.20;;
51184;SDS011;37248;59.350;18.050;2023-02-20T14:18:29;4.85;;;1.30;;
51184;SDS011;37248;59.350;18.050;2023-02-20T14:21:16;3.63;;;1.30;;
51184;SDS011;37248;59.350;18.050;2023-02-20T14:23:42;2.92;;;1.27;;
51184;SDS011;37248;59.350;18.050;2023-02-20T14:28:46;3.30;;;1.13;;
51184;SDS011;37248;59.350;18.050;2023-02-20T14:33:44;4.65;;;1.20;;
51184;SDS011;37248;59.350;18.050;2023-02-20T14:36:18;3.33;;;1.17;;
51184;SDS011;37248;59.350;18.050;2023-02-20T14:41:16;3.37;;;1.13;;
51184;SDS011;37248;59.350;18.050;2023-02-20T14:43:42;3.40;;;1.00;;
51184;SDS011;37248;59.350;18.050;2023-02-20T14:46:17;2.88;;;1.30;;
51184;SDS011;37248;59.350;18.050;2023-02-20T14:48:44;14.30;;;1.30;;
51184;SDS011;37248;59.350;18.050;2023-02-20T14:53:35;3.83;;;1.20;;
51184;SDS011;37248;59.350;18.050;2023-02-20T14:56:14;5.28;;;1.23;;
51184;SDS011;37248;59.350;18.050;2023-02-20T14:58:40;5.10;;;1.20;;
51184;SDS011;37248;59.350;18.050;2023-02-20T15:04:00;4.72;;;1.00;;
51184;SDS011;37248;59.350;18.050;2023-02-20T15:06:27;4.07;;;1.30;;
51184;SDS011;37248;59.350;18.050;2023-02-20T15:08:57;3.60;;;0.85;;
51184;SDS011;37248;59.350;18.050;2023-02-20T15:11:25;3.95;;;1.02;;
51184;SDS011;37248;59.350;18.050;2023-02-20T15:13:51;4.13;;;1.08;;
51184;SDS011;37248;59.350;18.050;2023-02-20T15:16:21;5.93;;;0.90;;
51184;SDS011;37248;59.350;18.050;2023-02-20T15:18:47;4.63;;;1.15;;
51184;SDS011;37248;59.350;18.050;2023-02-20T15:21:14;4.30;;;0.83;;
51184;SDS011;37248;59.350;18.050;2023-02-20T15:23:43;5.67;;;0.90;;
51184;SDS011;37248;59.350;18.050;2023-02-20T15:31:57;9.88;;;1.50;;
51184;SDS011;37248;59.350;18.050;2023-02-20T15:34:24;9.90;;;1.88;;
51184;SDS011;37248;59.350;18.050;2023-02-20T15:36:50;12.57;;;2.20;;
51184;SDS011;37248;59.350;18.050;2023-02-20T15:39:16;9.23;;;1.77;;
51184;SDS011;37248;59.350;18.050;2023-02-20T15:41:42;13.73;;;1.88;;
51184;SDS011;37248;59.350;18.050;2023-02-20T15:44:08;13.68;;;1.75;;
51184;SDS011;37248;59.350;18.050;2023-02-20T15:46:34;13.60;;;1.65;;
51184;SDS011;37248;59.350;18.050;2023-02-20T15:48:59;11.20;;;2.05;;
51184;SDS011;37248;59.350;18.050;2023-02-20T15:51:26;10.52;;;1.90;;
51184;SDS011;37248;59.350;18.050;2023-02-20T15:53:51;8.77;;;1.77;;
51184;SDS011;37248;59.350;18.050;2023-02-20T15:56:17;7.47;;;1.63;;
51184;SDS011;37248;59.350;18.050;2023-02-20T15:58:42;12.13;;;1.57;;
51184;SDS011;37248;59.350;18.050;2023-02-20T16:01:08;8.48;;;1.70;;
51184;SDS011;37248;59.350;18.050;2023-02-20T16:03:34;5.95;;;1.65;;
51184;SDS011;37248;59.350;18.050;2023-02-20T16:05:59;7.30;;;1.80;;
51184;SDS011;37248;59.350;18.050;2023-02-20T16:08:25;12.73;;;1.73;;
51184;SDS011;37248;59.350;18.050;2023-02-20T16:10:51;9.57;;;1.50;;
51184;SDS011;37248;59.350;18.050;2023-02-20T16:13:22;8.68;;;1.48;;
51184;SDS011;37248;59.350;18.050;2023-02-20T16:15:49;5.75;;;1.83;;
51184;SDS011;37248;59.350;18.050;2023-02-20T16:18:14;8.27;;;1.60;;
51184;SDS011;37248;59.350;18.050;2023-02-20T16:20:39;8.23;;;1.63;;
51184;SDS011;37248;59.350;18.050;2023-02-20T16:23:04;5.90;;;1.63;;
51184;SDS011;37248;59.350;18.050;2023-02-20T16:25:32;6.78;;;1.50;;
51184;SDS011;37248;59.350;18.050;2023-02-20T16:27:57;7.07;;;1.47;;
51184;SDS011;37248;59.350;18.050;2023-02-20T16:30:28;4.33;;;1.27;;
51184;SDS011;37248;59.350;18.050;2023-02-20T16:32:54;7.23;;;1.67;;
51184;SDS011;37248;59.350;18.050;2023-02-20T16:35:20;3.63;;;1.30;;
51184;SDS011;37248;59.350;18.050;2023-02-20T16:37:45;5.00;;;1.38;;
51184;SDS011;37248;59.350;18.050;2023-02-20T16:40:11;4.00;;;1.50;;